sensor_id;sensor_type;location;lat;lon;timestamp;P1;durP1;ratioP1;P2;durP2;ratioP2
4636;SDS011;2331;48.806;9.140;2023-03-01T00:00:48;20.10;;;13.20;;
4636;SDS011;2331;48.806;9.140;2023-03-01T00:03:15;22.75;;;14.20;;
4636;SDS011;2331;48.806;9.140;2023-03-01T00:05:43;21.98;;;13.00;;
4636;SDS011;2331;48.806;9.140;2023-03-01T00:08:11;20.55;;;12.82;;
4636;SDS011;2331;48.806;9.140;2023-03-01T00:10:38;20.02;;;12.02;;
4636;SDS011;2331;48.806;9.140;2023-03-01T00:13:05;24.35;;;15.15;;
4636;SDS011;2331;48.806;9.140;2023-03-01T00:15:32;23.58;;;13.45;;
4636;SDS011;2331;48.806;9.140;2023-03-01T00:17:59;21.85;;;13.32;;
4636;SDS011;2331;48.806;9.140;2023-03-01T00:20:26;21.70;;;13.65;;
4636;SDS011;2331;48.806;9.140;2023-03-01T00:22:53;25.25;;;14.05;;
4636;SDS011;2331;48.806;9.140;2023-03-01T00:25:21;18.95;;;13.13;;
4636;SDS011;2331;48.806;9.140;2023-03-01T00:27:47;19.83;;;12.80;;
4636;SDS011;2331;48.806;9.140;2023-03-01T00:30:14;22.30;;;13.70;;
4636;SDS011;2331;48.806;9.140;2023-03-01T00:32:41;21.30;;;12.70;;
4636;SDS011;2331;48.806;9.140;2023-03-01T00:35:08;19.63;;;12.50;;
4636;SDS011;2331;48.806;9.140;2023-03-01T00:37:35;20.58;;;13.07;;
4636;SDS011;2331;48.806;9.140;2023-03-01T00:40:02;20.83;;;12.98;;
4636;SDS011;2331;48.806;9.140;2023-03-01T00:42:32;22.83;;;13.38;;
4636;SDS011;2331;48.806;9.140;2023-03-01T00:44:59;21.95;;;14.20;;
4636;SDS011;2331;48.806;9.140;2023-03-01T00:47:28;19.77;;;12.43;;
4636;SDS011;2331;48.806;9.140;2023-03-01T00:49:55;21.05;;;13.38;;
4636;SDS011;2331;48.806;9.140;2023-03-01T00:52:21;21.80;;;13.77;;
4636;SDS011;2331;48.806;9.140;2023-03-01T00:54:48;24.33;;;14.50;;
4636;SDS011;2331;48.806;9.140;2023-03-01T00:57:18;20.00;;;12.60;;
4636;SDS011;2331;48.806;9.140;2023-03-01T00:59:46;22.83;;;13.60;;
4636;SDS011;2331;48.806;9.140;2023-03-01T01:02:13;20.92;;;12.57;;
4636;SDS011;2331;48.806;9.140;2023-03-01T01:04:40;20.55;;;12.95;;
4636;SDS011;2331;48.806;9.140;2023-03-01T01:07:07;20.73;;;13.93;;
4636;SDS011;2331;48.806;9.140;2023-03-01T01:09:33;20.83;;;12.60;;
4636;SDS011;2331;48.806;9.140;2023-03-01T01:12:00;25.80;;;14.85;;
4636;SDS011;2331;48.806;9.140;2023-03-01T01:14:27;24.48;;;13.60;;
4636;SDS011;2331;48.806;9.140;2023-03-01T01:16:55;25.17;;;14.50;;
4636;SDS011;2331;48.806;9.140;2023-03-01T01:19:22;22.52;;;14.82;;
4636;SDS011;2331;48.806;9.140;2023-03-01T01:21:49;20.13;;;14.15;;
4636;SDS011;2331;48.806;9.140;2023-03-01T01:24:17;23.83;;;14.82;;
4636;SDS011;2331;48.806;9.140;2023-03-01T01:26:44;22.23;;;13.57;;
4636;SDS011;2331;48.806;9.140;2023-03-01T01:29:12;21.98;;;13.98;;
4636;SDS011;2331;48.806;9.140;2023-03-01T01:31:39;22.15;;;13.35;;
4636;SDS011;2331;48.806;9.140;2023-03-01T01:34:10;24.10;;;14.43;;
4636;SDS011;2331;48.806;9.140;2023-03-01T01:36:39;22.13;;;14.23;;
4636;SDS011;2331;48.806;9.140;2023-03-01T01:39:06;19.20;;;12.50;;
4636;SDS011;2331;48.806;9.140;2023-03-01T01:41:38;24.70;;;14.50;;
4636;SDS011;2331;48.806;9.140;2023-03-01T01:44:10;23.38;;;14.95;;
4636;SDS011;2331;48.806;9.140;2023-03-01T01:46:43;27.13;;;15.85;;
4636;SDS011;2331;48.806;9.140;2023-03-01T01:49:18;22.33;;;14.23;;
4636;SDS011;2331;48.806;9.140;2023-03-01T01:51:51;25.15;;;14.38;;
4636;SDS011;2331;48.806;9.140;2023-03-01T01:54:24;29.88;;;15.75;;
4636;SDS011;2331;48.806;9.140;2023-03-01T01:56:55;19.30;;;13.48;;
4636;SDS011;2331;48.806;9.140;2023-03-01T01:59:26;24.08;;;14.63;;
4636;SDS011;2331;48.806;9.140;2023-03-01T02:01:56;22.48;;;14.27;;
4636;SDS011;2331;48.806;9.140;2023-03-01T02:04:27;25.00;;;14.35;;
4636;SDS011;2331;48.806;9.140;2023-03-01T02:06:55;22.98;;;13.95;;
4636;SDS011;2331;48.806;9.140;2023-03-01T02:09:26;25.98;;;14.98;;
4636;SDS011;2331;48.806;9.140;2023-03-01T02:11:54;22.55;;;14.00;;
4636;SDS011;2331;48.806;9.140;2023-03-01T02:14:20;23.55;;;13.65;;
4636;SDS011;2331;48.806;9.140;2023-03-01T02:16:47;23.15;;;13.25;;
4636;SDS011;2331;48.806;9.140;2023-03-01T02:19:17;25.08;;;14.20;;
4636;SDS011;2331;48.806;9.140;2023-03-01T02:21:56;29.38;;;15.98;;
4636;SDS011;2331;48.806;9.140;2023-03-01T02:24:32;24.65;;;15.35;;
4636;SDS011;2331;48.806;9.140;2023-03-01T02:27:06;25.95;;;15.05;;
4636;SDS011;2331;48.806;9.140;2023-03-01T02:29:34;24.52;;;15.00;;
4636;SDS011;2331;48.806;9.140;2023-03-01T02:32:02;27.40;;;15.63;;
4636;SDS011;2331;48.806;9.140;2023-03-01T02:34:28;23.83;;;14.93;;
4636;SDS011;2331;48.806;9.140;2023-03-01T02:37:00;26.20;;;15.50;;
4636;SDS011;2331;48.806;9.140;2023-03-01T02:39:30;23.35;;;14.80;;
4636;SDS011;2331;48.806;9.140;2023-03-01T02:42:00;22.90;;;14.80;;
4636;SDS011;2331;48.806;9.140;2023-03-01T02:44:28;25.08;;;14.60;;
4636;SDS011;2331;48.806;9.140;2023-03-01T02:46:56;24.95;;;14.60;;
4636;SDS011;2331;48.806;9.140;2023-03-01T02:49:28;25.75;;;15.50;;
4636;SDS011;2331;48.806;9.140;2023-03-01T02:52:01;30.20;;;15.52;;
4636;SDS011;2331;48.806;9.140;2023-03-01T02:54:41;26.45;;;15.18;;
4636;SDS011;2331;48.806;9.140;2023-03-01T02:57:12;23.40;;;14.25;;
4636;SDS011;2331;48.806;9.140;2023-03-01T02:59:39;22.42;;;15.52;;
4636;SDS011;2331;48.806;9.140;2023-03-01T03:02:18;24.65;;;15.10;;
4636;SDS011;2331;48.806;9.140;2023-03-01T03:05:01;25.35;;;14.45;;
4636;SDS011;2331;48.806;9.140;2023-03-01T03:07:31;22.75;;;14.50;;
4636;SDS011;2331;48.806;9.140;2023-03-01T03:09:59;26.73;;;14.77;;
4636;SDS011;2331;48.806;9.140;2023-03-01T03:12:26;24.23;;;14.95;;
4636;SDS011;2331;48.806;9.140;2023-03-01T03:14:53;25.27;;;15.52;;
4636;SDS011;2331;48.806;9.140;2023-03-01T03:17:21;26.17;;;16.08;;
4636;SDS011;2331;48.806;9.140;2023-03-01T03:19:47;30.33;;;15.85;;
4636;SDS011;2331;48.806;9.140;2023-03-01T03:22:14;35.60;;;15.75;;
4636;SDS011;2331;48.806;9.140;2023-03-01T03:24:41;25.02;;;15.25;;
4636;SDS011;2331;48.806;9.140;2023-03-01T03:27:08;27.27;;;16.50;;
4636;SDS011;2331;48.806;9.140;2023-03-01T03:29:34;26.90;;;15.73;;
4636;SDS011;2331;48.806;9.140;2023-03-01T03:32:01;24.15;;;15.20;;
4636;SDS011;2331;48.806;9.140;2023-03-01T03:34:29;22.85;;;14.70;;
4636;SDS011;2331;48.806;9.140;2023-03-01T03:36:56;27.58;;;16.33;;
4636;SDS011;2331;48.806;9.140;2023-03-01T03:39:24;27.35;;;15.68;;
4636;SDS011;2331;48.806;9.140;2023-03-01T03:41:52;27.83;;;16.60;;
4636;SDS011;2331;48.806;9.140;2023-03-01T03:44:19;28.10;;;15.88;;
4636;SDS011;2331;48.806;9.140;2023-03-01T03:46:46;25.40;;;14.80;;
4636;SDS011;2331;48.806;9.140;2023-03-01T03:49:13;23.70;;;14.80;;
4636;SDS011;2331;48.806;9.140;2023-03-01T03:51:40;25.73;;;16.13;;
4636;SDS011;2331;48.806;9.140;2023-03-01T03:54:07;23.35;;;14.80;;
4636;SDS011;2331;48.806;9.140;2023-03-01T03:56:34;29.17;;;16.60;;
4636;SDS011;2331;48.806;9.140;2023-03-01T03:59:00;24.20;;;14.68;;
4636;SDS011;2331;48.806;9.140;2023-03-01T04:01:27;25.40;;;16.00;;
4636;SDS011;2331;48.806;9.140;2023-03-01T04:03:54;28.98;;;15.75;;
4636;SDS011;2331;48.806;9.140;2023-03-01T04:06:21;25.38;;;15.15;;
4636;SDS011;2331;48.806;9.140;2023-03-01T04:08:49;23.95;;;15.38;;
4636;SDS011;2331;48.806;9.140;2023-03-01T04:11:23;23.42;;;14.43;;
4636;SDS011;2331;48.806;9.140;2023-03-01T04:13:53;28.52;;;14.70;;
4636;SDS011;2331;48.806;9.140;2023-03-01T04:16:21;25.55;;;15.30;;
4636;SDS011;2331;48.806;9.140;2023-03-01T04:18:48;26.48;;;14.82;;
4636;SDS011;2331;48.806;9.140;2023-03-01T04:21:15;23.58;;;15.60;;
4636;SDS011;2331;48.806;9.140;2023-03-01T04:23:41;23.00;;;14.40;;
4636;SDS011;2331;48.806;9.140;2023-03-01T04:26:09;25.63;;;14.73;;
4636;SDS011;2331;48.806;9.140;2023-03-01T04:28:37;26.30;;;16.40;;
4636;SDS011;2331;48.806;9.140;2023-03-01T04:31:08;26.40;;;16.00;;
4636;SDS011;2331;48.806;9.140;2023-03-01T04:33:39;25.15;;;16.05;;
4636;SDS011;2331;48.806;9.140;2023-03-01T04:36:07;23.77;;;14.75;;
4636;SDS011;2331;48.806;9.140;2023-03-01T04:38:34;24.33;;;14.80;;
4636;SDS011;2331;48.806;9.140;2023-03-01T04:41:02;23.27;;;14.90;;
4636;SDS011;2331;48.806;9.140;2023-03-01T04:43:30;25.38;;;15.38;;
4636;SDS011;2331;48.806;9.140;2023-03-01T04:45:59;25.92;;;16.10;;
4636;SDS011;2331;48.806;9.140;2023-03-01T04:48:28;25.05;;;15.07;;
4636;SDS011;2331;48.806;9.140;2023-03-01T04:50:54;22.63;;;14.40;;
4636;SDS011;2331;48.806;9.140;2023-03-01T04:53:21;24.50;;;14.60;;
4636;SDS011;2331;48.806;9.140;2023-03-01T04:55:48;25.75;;;15.90;;
4636;SDS011;2331;48.806;9.140;2023-03-01T04:58:14;26.95;;;15.57;;
4636;SDS011;2331;48.806;9.140;2023-03-01T05:00:42;26.63;;;17.50;;
4636;SDS011;2331;48.806;9.140;2023-03-01T05:03:09;26.27;;;14.65;;
4636;SDS011;2331;48.806;9.140;2023-03-01T05:05:36;24.42;;;15.10;;
4636;SDS011;2331;48.806;9.140;2023-03-01T05:08:04;26.90;;;15.88;;
4636;SDS011;2331;48.806;9.140;2023-03-01T05:10:32;23.17;;;15.40;;
4636;SDS011;2331;48.806;9.140;2023-03-01T05:13:01;24.80;;;13.90;;
4636;SDS011;2331;48.806;9.140;2023-03-01T05:15:29;27.63;;;16.33;;
4636;SDS011;2331;48.806;9.140;2023-03-01T05:17:59;25.67;;;15.05;;
4636;SDS011;2331;48.806;9.140;2023-03-01T05:20:26;26.67;;;15.88;;
4636;SDS011;2331;48.806;9.140;2023-03-01T05:22:55;25.65;;;15.57;;
4636;SDS011;2331;48.806;9.140;2023-03-01T05:25:23;29.10;;;16.40;;
4636;SDS011;2331;48.806;9.140;2023-03-01T05:27:50;27.10;;;15.80;;
4636;SDS011;2331;48.806;9.140;2023-03-01T05:30:17;26.08;;;16.02;;
4636;SDS011;2331;48.806;9.140;2023-03-01T05:32:44;29.13;;;15.85;;
4636;SDS011;2331;48.806;9.140;2023-03-01T05:35:14;28.40;;;15.88;;
4636;SDS011;2331;48.806;9.140;2023-03-01T05:37:43;23.77;;;15.43;;
4636;SDS011;2331;48.806;9.140;2023-03-01T05:40:11;22.40;;;13.95;;
4636;SDS011;2331;48.806;9.140;2023-03-01T05:42:42;32.15;;;16.98;;
4636;SDS011;2331;48.806;9.140;2023-03-01T05:45:10;24.23;;;15.18;;
4636;SDS011;2331;48.806;9.140;2023-03-01T05:47:38;25.48;;;15.30;;
4636;SDS011;2331;48.806;9.140;2023-03-01T05:50:08;24.92;;;14.88;;
4636;SDS011;2331;48.806;9.140;2023-03-01T05:52:38;26.88;;;15.68;;
4636;SDS011;2331;48.806;9.140;2023-03-01T05:55:05;26.83;;;16.65;;
4636;SDS011;2331;48.806;9.140;2023-03-01T05:57:33;23.27;;;15.43;;
4636;SDS011;2331;48.806;9.140;2023-03-01T05:59:59;27.45;;;17.08;;
4636;SDS011;2331;48.806;9.140;2023-03-01T06:02:26;27.33;;;15.70;;
4636;SDS011;2331;48.806;9.140;2023-03-01T06:04:54;24.23;;;16.08;;
4636;SDS011;2331;48.806;9.140;2023-03-01T06:07:20;28.05;;;16.63;;
4636;SDS011;2331;48.806;9.140;2023-03-01T06:09:48;28.48;;;17.23;;
4636;SDS011;2331;48.806;9.140;2023-03-01T06:12:15;27.27;;;16.60;;
4636;SDS011;2331;48.806;9.140;2023-03-01T06:14:42;30.60;;;16.85;;
4636;SDS011;2331;48.806;9.140;2023-03-01T06:17:08;26.40;;;16.95;;
4636;SDS011;2331;48.806;9.140;2023-03-01T06:19:35;24.40;;;15.35;;
4636;SDS011;2331;48.806;9.140;2023-03-01T06:22:02;28.85;;;17.30;;
4636;SDS011;2331;48.806;9.140;2023-03-01T06:24:29;26.17;;;16.35;;
4636;SDS011;2331;48.806;9.140;2023-03-01T06:26:56;23.52;;;15.30;;
4636;SDS011;2331;48.806;9.140;2023-03-01T06:29:23;28.70;;;17.88;;
4636;SDS011;2331;48.806;9.140;2023-03-01T06:31:50;27.80;;;18.05;;
4636;SDS011;2331;48.806;9.140;2023-03-01T06:34:17;25.45;;;16.65;;
4636;SDS011;2331;48.806;9.140;2023-03-01T06:36:44;32.25;;;17.58;;
4636;SDS011;2331;48.806;9.140;2023-03-01T06:39:10;30.23;;;16.83;;
4636;SDS011;2331;48.806;9.140;2023-03-01T06:41:37;30.92;;;17.60;;
4636;SDS011;2331;48.806;9.140;2023-03-01T06:44:05;28.73;;;17.40;;
4636;SDS011;2331;48.806;9.140;2023-03-01T06:46:31;31.85;;;17.00;;
4636;SDS011;2331;48.806;9.140;2023-03-01T06:48:58;29.25;;;17.70;;
4636;SDS011;2331;48.806;9.140;2023-03-01T06:51:25;26.92;;;16.42;;
4636;SDS011;2331;48.806;9.140;2023-03-01T06:53:52;24.13;;;16.20;;
4636;SDS011;2331;48.806;9.140;2023-03-01T06:56:18;28.77;;;17.42;;
4636;SDS011;2331;48.806;9.140;2023-03-01T06:58:45;27.98;;;16.85;;
4636;SDS011;2331;48.806;9.140;2023-03-01T07:01:13;33.10;;;18.05;;
4636;SDS011;2331;48.806;9.140;2023-03-01T07:03:40;30.63;;;17.75;;
4636;SDS011;2331;48.806;9.140;2023-03-01T07:06:09;28.85;;;17.02;;
4636;SDS011;2331;48.806;9.140;2023-03-01T07:08:35;36.85;;;19.42;;
4636;SDS011;2331;48.806;9.140;2023-03-01T07:11:02;28.83;;;17.25;;
4636;SDS011;2331;48.806;9.140;2023-03-01T07:13:29;31.10;;;18.05;;
4636;SDS011;2331;48.806;9.140;2023-03-01T07:15:57;32.25;;;18.58;;
4636;SDS011;2331;48.806;9.140;2023-03-01T07:18:25;32.80;;;17.77;;
4636;SDS011;2331;48.806;9.140;2023-03-01T07:20:53;30.42;;;17.67;;
4636;SDS011;2331;48.806;9.140;2023-03-01T07:23:20;30.73;;;18.60;;
4636;SDS011;2331;48.806;9.140;2023-03-01T07:25:53;29.23;;;17.70;;
4636;SDS011;2331;48.806;9.140;2023-03-01T07:28:22;36.10;;;20.23;;
4636;SDS011;2331;48.806;9.140;2023-03-01T07:30:49;31.58;;;18.92;;
4636;SDS011;2331;48.806;9.140;2023-03-01T07:33:16;33.95;;;18.60;;
4636;SDS011;2331;48.806;9.140;2023-03-01T07:35:47;34.03;;;18.30;;
4636;SDS011;2331;48.806;9.140;2023-03-01T07:38:13;31.73;;;18.50;;
4636;SDS011;2331;48.806;9.140;2023-03-01T07:40:40;34.17;;;19.00;;
4636;SDS011;2331;48.806;9.140;2023-03-01T07:43:07;30.98;;;17.73;;
4636;SDS011;2331;48.806;9.140;2023-03-01T07:45:33;31.45;;;19.42;;
4636;SDS011;2331;48.806;9.140;2023-03-01T07:48:00;32.10;;;18.75;;
4636;SDS011;2331;48.806;9.140;2023-03-01T07:50:27;34.40;;;19.13;;
4636;SDS011;2331;48.806;9.140;2023-03-01T07:52:55;32.95;;;19.40;;
4636;SDS011;2331;48.806;9.140;2023-03-01T07:55:22;34.95;;;19.80;;
4636;SDS011;2331;48.806;9.140;2023-03-01T07:57:48;34.65;;;19.77;;
4636;SDS011;2331;48.806;9.140;2023-03-01T08:00:15;30.85;;;18.20;;
4636;SDS011;2331;48.806;9.140;2023-03-01T08:02:42;29.83;;;18.88;;
4636;SDS011;2331;48.806;9.140;2023-03-01T08:05:10;32.00;;;18.65;;
4636;SDS011;2331;48.806;9.140;2023-03-01T08:07:37;30.48;;;18.38;;
4636;SDS011;2331;48.806;9.140;2023-03-01T08:10:05;30.55;;;18.38;;
4636;SDS011;2331;48.806;9.140;2023-03-01T08:12:32;32.70;;;18.42;;
4636;SDS011;2331;48.806;9.140;2023-03-01T08:14:59;29.60;;;18.15;;
4636;SDS011;2331;48.806;9.140;2023-03-01T08:17:26;37.33;;;18.13;;
4636;SDS011;2331;48.806;9.140;2023-03-01T08:19:52;33.25;;;19.00;;
4636;SDS011;2331;48.806;9.140;2023-03-01T08:22:19;33.10;;;18.95;;
4636;SDS011;2331;48.806;9.140;2023-03-01T08:24:47;32.28;;;19.38;;
4636;SDS011;2331;48.806;9.140;2023-03-01T08:27:16;35.17;;;19.90;;
4636;SDS011;2331;48.806;9.140;2023-03-01T08:29:42;32.70;;;19.70;;
4636;SDS011;2331;48.806;9.140;2023-03-01T08:32:09;34.47;;;19.25;;
4636;SDS011;2331;48.806;9.140;2023-03-01T08:34:36;28.35;;;17.67;;
4636;SDS011;2331;48.806;9.140;2023-03-01T08:37:02;36.30;;;19.35;;
4636;SDS011;2331;48.806;9.140;2023-03-01T08:39:29;29.58;;;17.08;;
4636;SDS011;2331;48.806;9.140;2023-03-01T08:41:56;35.80;;;18.50;;
4636;SDS011;2331;48.806;9.140;2023-03-01T08:44:24;33.47;;;18.10;;
4636;SDS011;2331;48.806;9.140;2023-03-01T08:46:51;35.08;;;18.85;;
4636;SDS011;2331;48.806;9.140;2023-03-01T08:49:19;32.15;;;18.75;;
4636;SDS011;2331;48.806;9.140;2023-03-01T08:51:46;30.52;;;17.90;;
4636;SDS011;2331;48.806;9.140;2023-03-01T08:54:14;30.63;;;18.75;;
4636;SDS011;2331;48.806;9.140;2023-03-01T08:56:42;35.25;;;19.42;;
4636;SDS011;2331;48.806;9.140;2023-03-01T08:59:09;32.70;;;19.88;;
4636;SDS011;2331;48.806;9.140;2023-03-01T09:01:38;30.15;;;18.50;;
4636;SDS011;2331;48.806;9.140;2023-03-01T09:04:08;28.70;;;18.50;;
4636;SDS011;2331;48.806;9.140;2023-03-01T09:06:36;31.70;;;18.90;;
4636;SDS011;2331;48.806;9.140;2023-03-01T09:09:04;32.60;;;18.65;;
4636;SDS011;2331;48.806;9.140;2023-03-01T09:11:34;35.80;;;19.13;;
4636;SDS011;2331;48.806;9.140;2023-03-01T09:14:00;30.40;;;18.58;;
4636;SDS011;2331;48.806;9.140;2023-03-01T09:16:30;30.42;;;18.15;;
4636;SDS011;2331;48.806;9.140;2023-03-01T09:19:02;32.50;;;20.02;;
4636;SDS011;2331;48.806;9.140;2023-03-01T09:21:29;31.50;;;19.13;;
4636;SDS011;2331;48.806;9.140;2023-03-01T09:23:56;33.15;;;18.67;;
4636;SDS011;2331;48.806;9.140;2023-03-01T09:26:24;37.80;;;21.27;;
4636;SDS011;2331;48.806;9.140;2023-03-01T09:28:51;29.10;;;17.67;;
4636;SDS011;2331;48.806;9.140;2023-03-01T09:31:20;33.70;;;19.17;;
4636;SDS011;2331;48.806;9.140;2023-03-01T09:33:48;32.80;;;18.65;;
4636;SDS011;2331;48.806;9.140;2023-03-01T09:36:18;34.47;;;19.38;;
4636;SDS011;2331;48.806;9.140;2023-03-01T09:38:46;30.25;;;18.23;;
4636;SDS011;2331;48.806;9.140;2023-03-01T09:41:18;30.58;;;18.77;;
4636;SDS011;2331;48.806;9.140;2023-03-01T09:44:05;32.17;;;18.83;;
4636;SDS011;2331;48.806;9.140;2023-03-01T09:46:39;31.25;;;18.08;;
4636;SDS011;2331;48.806;9.140;2023-03-01T09:49:10;31.85;;;18.50;;
4636;SDS011;2331;48.806;9.140;2023-03-01T09:51:43;30.23;;;19.10;;
4636;SDS011;2331;48.806;9.140;2023-03-01T09:54:19;31.95;;;19.15;;
4636;SDS011;2331;48.806;9.140;2023-03-01T09:56:47;27.17;;;16.83;;
4636;SDS011;2331;48.806;9.140;2023-03-01T09:59:23;30.92;;;17.83;;
4636;SDS011;2331;48.806;9.140;2023-03-01T10:01:57;29.63;;;17.83;;
4636;SDS011;2331;48.806;9.140;2023-03-01T10:04:34;34.05;;;18.50;;
4636;SDS011;2331;48.806;9.140;2023-03-01T10:07:14;34.65;;;18.95;;
4636;SDS011;2331;48.806;9.140;2023-03-01T10:09:47;31.33;;;18.98;;
4636;SDS011;2331;48.806;9.140;2023-03-01T10:12:15;32.55;;;18.70;;
4636;SDS011;2331;48.806;9.140;2023-03-01T10:14:48;32.42;;;19.20;;
4636;SDS011;2331;48.806;9.140;2023-03-01T10:17:24;29.25;;;17.70;;
4636;SDS011;2331;48.806;9.140;2023-03-01T10:19:56;36.28;;;19.63;;
4636;SDS011;2331;48.806;9.140;2023-03-01T10:22:37;30.95;;;18.50;;
4636;SDS011;2331;48.806;9.140;2023-03-01T10:25:04;35.42;;;21.08;;
4636;SDS011;2331;48.806;9.140;2023-03-01T10:27:34;36.53;;;19.23;;
4636;SDS011;2331;48.806;9.140;2023-03-01T10:30:10;29.77;;;18.05;;
4636;SDS011;2331;48.806;9.140;2023-03-01T10:32:42;32.58;;;18.73;;
4636;SDS011;2331;48.806;9.140;2023-03-01T10:35:16;35.03;;;18.67;;
4636;SDS011;2331;48.806;9.140;2023-03-01T10:37:59;32.35;;;18.15;;
4636;SDS011;2331;48.806;9.140;2023-03-01T10:40:31;30.70;;;17.77;;
4636;SDS011;2331;48.806;9.140;2023-03-01T10:42:58;32.05;;;17.98;;
4636;SDS011;2331;48.806;9.140;2023-03-01T10:45:33;27.88;;;17.65;;
4636;SDS011;2331;48.806;9.140;2023-03-01T10:48:06;29.45;;;16.40;;
4636;SDS011;2331;48.806;9.140;2023-03-01T10:50:39;32.20;;;18.33;;
4636;SDS011;2331;48.806;9.140;2023-03-01T10:53:16;29.75;;;17.77;;
4636;SDS011;2331;48.806;9.140;2023-03-01T10:55:48;29.33;;;16.38;;
4636;SDS011;2331;48.806;9.140;2023-03-01T10:58:23;28.30;;;16.20;;
4636;SDS011;2331;48.806;9.140;2023-03-01T11:00:50;26.08;;;16.42;;
4636;SDS011;2331;48.806;9.140;2023-03-01T11:03:20;29.33;;;16.67;;
4636;SDS011;2331;48.806;9.140;2023-03-01T11:05:53;30.25;;;17.42;;
4636;SDS011;2331;48.806;9.140;2023-03-01T11:08:30;27.17;;;16.50;;
4636;SDS011;2331;48.806;9.140;2023-03-01T11:11:17;32.15;;;16.27;;
4636;SDS011;2331;48.806;9.140;2023-03-01T11:13:50;34.67;;;18.38;;
4636;SDS011;2331;48.806;9.140;2023-03-01T11:16:23;30.90;;;17.02;;
4636;SDS011;2331;48.806;9.140;2023-03-01T11:19:06;31.65;;;17.60;;
4636;SDS011;2331;48.806;9.140;2023-03-01T11:21:43;24.90;;;16.05;;
4636;SDS011;2331;48.806;9.140;2023-03-01T11:24:18;28.63;;;16.60;;
4636;SDS011;2331;48.806;9.140;2023-03-01T11:26:47;30.63;;;16.98;;
4636;SDS011;2331;48.806;9.140;2023-03-01T11:29:21;25.83;;;16.17;;
4636;SDS011;2331;48.806;9.140;2023-03-01T11:31:54;26.50;;;16.60;;
4636;SDS011;2331;48.806;9.140;2023-03-01T11:34:28;25.40;;;15.65;;
4636;SDS011;2331;48.806;9.140;2023-03-01T11:37:04;26.80;;;15.98;;
4636;SDS011;2331;48.806;9.140;2023-03-01T11:39:43;22.63;;;14.50;;
4636;SDS011;2331;48.806;9.140;2023-03-01T11:42:18;27.60;;;16.17;;
4636;SDS011;2331;48.806;9.140;2023-03-01T11:44:49;23.00;;;14.55;;
4636;SDS011;2331;48.806;9.140;2023-03-01T11:47:26;25.02;;;14.25;;
4636;SDS011;2331;48.806;9.140;2023-03-01T11:50:14;23.17;;;13.73;;
4636;SDS011;2331;48.806;9.140;2023-03-01T11:55:49;27.60;;;14.57;;
4636;SDS011;2331;48.806;9.140;2023-03-01T11:58:35;24.98;;;14.85;;
4636;SDS011;2331;48.806;9.140;2023-03-01T12:01:26;22.70;;;14.95;;
4636;SDS011;2331;48.806;9.140;2023-03-01T12:07:03;23.55;;;14.48;;
4636;SDS011;2331;48.806;9.140;2023-03-01T12:09:38;26.52;;;15.38;;
4636;SDS011;2331;48.806;9.140;2023-03-01T12:12:26;23.10;;;13.25;;
4636;SDS011;2331;48.806;9.140;2023-03-01T12:15:06;19.98;;;12.75;;
4636;SDS011;2331;48.806;9.140;2023-03-01T12:17:57;26.60;;;13.98;;
4636;SDS011;2331;48.806;9.140;2023-03-01T12:20:31;24.65;;;13.88;;
4636;SDS011;2331;48.806;9.140;2023-03-01T12:23:07;22.85;;;12.70;;
4636;SDS011;2331;48.806;9.140;2023-03-01T12:25:53;19.70;;;13.57;;
4636;SDS011;2331;48.806;9.140;2023-03-01T12:28:33;25.20;;;14.57;;
4636;SDS011;2331;48.806;9.140;2023-03-01T12:31:31;26.52;;;13.35;;
4636;SDS011;2331;48.806;9.140;2023-03-01T12:34:21;24.05;;;14.45;;
4636;SDS011;2331;48.806;9.140;2023-03-01T12:37:03;23.33;;;12.73;;
4636;SDS011;2331;48.806;9.140;2023-03-01T12:39:47;22.13;;;13.25;;
4636;SDS011;2331;48.806;9.140;2023-03-01T12:42:22;21.20;;;12.48;;
4636;SDS011;2331;48.806;9.140;2023-03-01T12:45:00;23.83;;;13.88;;
4636;SDS011;2331;48.806;9.140;2023-03-01T12:47:47;23.58;;;14.52;;
4636;SDS011;2331;48.806;9.140;2023-03-01T12:50:26;24.70;;;14.68;;
4636;SDS011;2331;48.806;9.140;2023-03-01T12:53:04;23.42;;;13.65;;
4636;SDS011;2331;48.806;9.140;2023-03-01T12:55:33;23.95;;;13.77;;
4636;SDS011;2331;48.806;9.140;2023-03-01T12:58:05;23.98;;;14.20;;
4636;SDS011;2331;48.806;9.140;2023-03-01T13:00:53;26.58;;;14.85;;
4636;SDS011;2331;48.806;9.140;2023-03-01T13:03:31;25.17;;;14.63;;
4636;SDS011;2331;48.806;9.140;2023-03-01T13:06:10;25.80;;;14.73;;
4636;SDS011;2331;48.806;9.140;2023-03-01T13:08:43;20.05;;;13.40;;
4636;SDS011;2331;48.806;9.140;2023-03-01T13:11:16;23.20;;;13.82;;
4636;SDS011;2331;48.806;9.140;2023-03-01T13:13:44;22.52;;;13.35;;
4636;SDS011;2331;48.806;9.140;2023-03-01T13:16:22;21.13;;;14.13;;
4636;SDS011;2331;48.806;9.140;2023-03-01T13:19:08;20.60;;;13.05;;
4636;SDS011;2331;48.806;9.140;2023-03-01T13:21:39;23.88;;;14.07;;
4636;SDS011;2331;48.806;9.140;2023-03-01T13:27:11;23.85;;;13.65;;
4636;SDS011;2331;48.806;9.140;2023-03-01T13:29:50;22.42;;;14.40;;
4636;SDS011;2331;48.806;9.140;2023-03-01T13:32:22;24.95;;;14.10;;
4636;SDS011;2331;48.806;9.140;2023-03-01T13:37:35;21.08;;;12.60;;
4636;SDS011;2331;48.806;9.140;2023-03-01T13:45:57;22.25;;;13.23;;
4636;SDS011;2331;48.806;9.140;2023-03-01T13:48:27;23.30;;;14.50;;
4636;SDS011;2331;48.806;9.140;2023-03-01T13:50:57;24.17;;;14.48;;
4636;SDS011;2331;48.806;9.140;2023-03-01T13:53:27;22.85;;;15.18;;
4636;SDS011;2331;48.806;9.140;2023-03-01T13:55:58;26.25;;;13.93;;
4636;SDS011;2331;48.806;9.140;2023-03-01T13:58:29;26.02;;;14.98;;
4636;SDS011;2331;48.806;9.140;2023-03-01T14:00:58;24.55;;;15.43;;
4636;SDS011;2331;48.806;9.140;2023-03-01T14:03:27;22.90;;;14.93;;
4636;SDS011;2331;48.806;9.140;2023-03-01T14:06:00;24.70;;;15.73;;
4636;SDS011;2331;48.806;9.140;2023-03-01T14:08:31;28.05;;;15.38;;
4636;SDS011;2331;48.806;9.140;2023-03-01T14:11:06;24.60;;;15.40;;
4636;SDS011;2331;48.806;9.140;2023-03-01T14:13:59;24.83;;;14.88;;
4636;SDS011;2331;48.806;9.140;2023-03-01T14:16:36;25.70;;;15.20;;
4636;SDS011;2331;48.806;9.140;2023-03-01T14:19:16;25.38;;;15.63;;
4636;SDS011;2331;48.806;9.140;2023-03-01T14:21:46;27.23;;;14.70;;
4636;SDS011;2331;48.806;9.140;2023-03-01T14:24:17;26.05;;;15.18;;
4636;SDS011;2331;48.806;9.140;2023-03-01T14:26:46;25.88;;;14.73;;
4636;SDS011;2331;48.806;9.140;2023-03-01T14:29:26;25.88;;;16.40;;
4636;SDS011;2331;48.806;9.140;2023-03-01T14:31:54;24.60;;;15.18;;
4636;SDS011;2331;48.806;9.140;2023-03-01T14:34:22;26.80;;;16.23;;
4636;SDS011;2331;48.806;9.140;2023-03-01T14:36:50;25.92;;;15.63;;
4636;SDS011;2331;48.806;9.140;2023-03-01T14:39:17;31.13;;;17.33;;
4636;SDS011;2331;48.806;9.140;2023-03-01T14:41:46;25.77;;;15.98;;
4636;SDS011;2331;48.806;9.140;2023-03-01T14:44:14;29.65;;;16.15;;
4636;SDS011;2331;48.806;9.140;2023-03-01T14:46:44;27.70;;;15.40;;
4636;SDS011;2331;48.806;9.140;2023-03-01T14:49:12;28.33;;;16.20;;
4636;SDS011;2331;48.806;9.140;2023-03-01T14:51:44;28.73;;;15.35;;
4636;SDS011;2331;48.806;9.140;2023-03-01T14:54:19;28.05;;;16.33;;
4636;SDS011;2331;48.806;9.140;2023-03-01T14:56:47;28.73;;;16.00;;
4636;SDS011;2331;48.806;9.140;2023-03-01T14:59:14;24.52;;;15.35;;
4636;SDS011;2331;48.806;9.140;2023-03-01T15:01:41;29.27;;;16.08;;
4636;SDS011;2331;48.806;9.140;2023-03-01T15:04:10;30.33;;;17.35;;
4636;SDS011;2331;48.806;9.140;2023-03-01T15:06:39;28.10;;;16.83;;
4636;SDS011;2331;48.806;9.140;2023-03-01T15:09:11;24.60;;;15.35;;
4636;SDS011;2331;48.806;9.140;2023-03-01T15:11:41;25.60;;;15.70;;
4636;SDS011;2331;48.806;9.140;2023-03-01T15:14:25;26.08;;;15.95;;
4636;SDS011;2331;48.806;9.140;2023-03-01T15:16:53;28.17;;;15.38;;
4636;SDS011;2331;48.806;9.140;2023-03-01T15:19:21;27.52;;;16.27;;
4636;SDS011;2331;48.806;9.140;2023-03-01T15:21:53;27.35;;;16.30;;
4636;SDS011;2331;48.806;9.140;2023-03-01T15:24:24;25.63;;;15.50;;